createdAt,value
2019-05-20T00:01:01.315Z,15.54
2019-05-20T00:06:08.387Z,15.45
2019-05-20T00:08:38.903Z,15.40
2019-05-20T00:11:07.577Z,15.44
2019-05-20T00:13:36.682Z,15.39
2019-05-20T00:16:05.674Z,15.32
2019-05-20T00:18:34.312Z,15.31
2019-05-20T00:21:03.453Z,15.30
2019-05-20T00:23:32.960Z,15.30
2019-05-20T00:26:01.608Z,15.20
2019-05-20T00:31:10.497Z,15.26
2019-05-20T00:33:40.375Z,15.18
2019-05-20T00:36:09.549Z,15.16
2019-05-20T00:38:38.657Z,15.09
2019-05-20T00:41:07.709Z,15.06
2019-05-20T00:43:36.657Z,15.01
2019-05-20T00:46:05.959Z,15.03
2019-05-20T00:48:34.638Z,15.00
2019-05-20T00:51:03.299Z,15.01
2019-05-20T00:53:31.911Z,14.98
2019-05-20T00:56:00.566Z,14.96
2019-05-20T00:58:29.587Z,14.81
2019-05-20T01:00:58.204Z,14.81
2019-05-20T01:03:26.832Z,14.83
2019-05-20T01:08:34.410Z,14.78
2019-05-20T01:11:03.767Z,14.77
2019-05-20T01:13:32.375Z,14.80
2019-05-20T01:16:00.931Z,14.67
2019-05-20T01:18:29.653Z,14.69
2019-05-20T01:23:38.645Z,14.71
2019-05-20T01:26:07.252Z,14.57
2019-05-20T01:28:36.273Z,14.34
2019-05-20T01:31:04.961Z,14.29
2019-05-20T01:33:34.239Z,14.46
2019-05-20T01:36:02.863Z,14.37
2019-05-20T01:38:32.231Z,14.41
2019-05-20T01:43:38.541Z,14.53
2019-05-20T01:46:07.529Z,14.45
2019-05-20T01:48:36.125Z,14.41
2019-05-20T01:51:04.818Z,14.28
2019-05-20T01:53:33.434Z,14.27
2019-05-20T01:58:39.871Z,14.37
2019-05-20T02:03:46.398Z,14.44
2019-05-20T02:08:54.873Z,14.34
2019-05-20T02:11:23.538Z,14.33
2019-05-20T02:13:56.523Z,14.31
2019-05-20T02:16:25.543Z,14.14
2019-05-20T02:18:54.167Z,14.09
2019-05-20T02:21:22.873Z,14.04
2019-05-20T02:23:51.908Z,14.19
2019-05-20T02:26:20.520Z,14.18
2019-05-20T02:28:49.487Z,14.14
2019-05-20T02:31:18.583Z,14.09
2019-05-20T02:33:52.399Z,14.08
2019-05-20T02:36:18.204Z,14.03
2019-05-20T02:38:46.850Z,13.98
2019-05-20T02:41:15.478Z,14.05
2019-05-20T02:43:44.228Z,14.03
2019-05-20T02:48:51.257Z,14.11
2019-05-20T02:51:30.736Z,14.06
2019-05-20T02:56:40.482Z,13.92
2019-05-20T02:59:09.082Z,13.96
2019-05-20T03:04:15.589Z,14.02
2019-05-20T03:06:44.210Z,13.96
2019-05-20T03:11:58.635Z,13.94
2019-05-20T03:14:27.284Z,13.94
2019-05-20T03:19:34.868Z,13.86
2019-05-20T03:22:03.888Z,13.63
2019-05-20T03:24:32.528Z,13.63
2019-05-20T03:27:01.963Z,13.66
2019-05-20T03:29:30.607Z,13.62
2019-05-20T03:31:59.611Z,13.64
2019-05-20T03:34:45.664Z,13.72
2019-05-20T03:36:59.079Z,13.48
2019-05-20T03:39:27.820Z,13.45
2019-05-20T03:41:56.680Z,13.59
2019-05-20T03:44:26.706Z,13.62
2019-05-20T03:46:55.654Z,13.61
2019-05-20T03:49:25.185Z,13.62
2019-05-20T03:51:54.246Z,13.64
2019-05-20T03:57:01.343Z,13.81
2019-05-20T03:59:29.968Z,13.78
2019-05-20T04:01:58.571Z,13.84
2019-05-20T04:07:04.706Z,13.72
2019-05-20T04:09:33.684Z,13.69
2019-05-20T04:12:04.226Z,13.69
2019-05-20T04:14:32.898Z,13.69
2019-05-20T04:19:39.006Z,13.65
2019-05-20T04:22:08.071Z,13.74
2019-05-20T04:24:36.786Z,13.79
2019-05-20T04:29:43.376Z,13.80
2019-05-20T04:32:12.346Z,13.82
2019-05-20T04:34:41.036Z,13.78
2019-05-20T04:37:10.130Z,13.84
2019-05-20T04:39:39.035Z,13.97
2019-05-20T04:44:47.434Z,13.90
2019-05-20T04:47:16.550Z,13.93
2019-05-20T04:49:45.684Z,13.91
2019-05-20T04:52:15.051Z,14.02
2019-05-20T04:54:44.384Z,14.10
2019-05-20T04:57:13.376Z,14.15
2019-05-20T04:59:42.051Z,14.20
2019-05-20T05:02:11.105Z,14.31
2019-05-20T05:07:17.694Z,14.26
2019-05-20T05:09:46.973Z,14.45
2019-05-20T05:12:15.994Z,14.46
2019-05-20T05:14:45.000Z,14.52
2019-05-20T05:19:53.113Z,14.57
2019-05-20T05:22:22.162Z,14.53
2019-05-20T05:24:51.037Z,14.68
2019-05-20T05:27:19.822Z,14.57
2019-05-20T05:29:48.462Z,14.45
2019-05-20T05:32:37.025Z,14.46
2019-05-20T05:37:43.706Z,14.77
2019-05-20T05:40:14.113Z,14.86
2019-05-20T05:42:43.117Z,14.94
2019-05-20T05:45:12.445Z,14.90
2019-05-20T05:47:41.790Z,15.02
2019-05-20T05:50:10.711Z,15.09
2019-05-20T05:52:43.632Z,15.14
2019-05-20T05:55:12.699Z,15.00
2019-05-20T06:00:27.887Z,15.07
2019-05-20T06:02:56.841Z,15.12
2019-05-20T06:08:10.211Z,15.29
2019-05-20T06:10:39.531Z,15.50
2019-05-20T06:15:48.467Z,15.59
2019-05-20T06:18:17.482Z,15.34
2019-05-20T06:20:46.210Z,15.22
2019-05-20T06:23:14.948Z,15.48
2019-05-20T06:28:21.104Z,15.66
2019-05-20T06:33:27.585Z,15.84
2019-05-20T06:38:59.350Z,15.90
2019-05-20T06:44:07.604Z,15.96
2019-05-20T06:46:36.270Z,16.10
2019-05-20T06:49:05.310Z,16.17
2019-05-20T06:51:34.048Z,16.39
2019-05-20T06:54:02.695Z,16.39
2019-05-20T06:56:31.711Z,16.54
2019-05-20T06:59:00.804Z,16.51
2019-05-20T07:01:29.711Z,16.56
2019-05-20T07:03:58.369Z,16.70
2019-05-20T07:09:08.327Z,16.84
2019-05-20T07:11:37.795Z,16.80
2019-05-20T07:14:06.484Z,16.47
2019-05-20T07:16:35.957Z,16.67
2019-05-20T07:19:05.088Z,16.61
2019-05-20T07:21:33.765Z,16.83
2019-05-20T07:26:42.370Z,16.83
2019-05-20T07:29:11.921Z,16.84
2019-05-20T07:31:40.733Z,16.87
2019-05-20T07:34:09.892Z,16.84
2019-05-20T07:36:38.491Z,16.65
2019-05-20T07:39:07.501Z,16.65
2019-05-20T07:41:36.234Z,16.93
2019-05-20T07:44:05.842Z,16.91
2019-05-20T07:49:15.297Z,17.19
2019-05-20T07:51:45.693Z,17.28
2019-05-20T07:54:15.798Z,17.43
2019-05-20T07:59:34.659Z,17.55
2019-05-20T08:02:03.765Z,17.40
2019-05-20T08:04:32.445Z,17.75
2019-05-20T08:09:45.319Z,17.85
2019-05-20T08:12:09.459Z,18.18
2019-05-20T08:17:16.146Z,18.18
2019-05-20T08:19:45.234Z,18.18
2019-05-20T08:22:13.888Z,18.39
2019-05-20T08:24:43.006Z,18.70
2019-05-20T08:27:11.706Z,18.83
2019-05-20T08:29:41.325Z,19.41
2019-05-20T08:34:50.944Z,19.17
2019-05-20T08:37:19.958Z,19.79
2019-05-20T08:39:49.268Z,20.18
2019-05-20T08:42:18.630Z,20.57
2019-05-20T08:44:47.763Z,19.87
2019-05-20T08:47:16.404Z,19.92
2019-05-20T08:52:24.694Z,20.21
2019-05-20T08:54:54.379Z,20.36
2019-05-20T08:57:23.719Z,20.17
2019-05-20T08:59:52.880Z,20.20
2019-05-20T09:05:02.691Z,20.91
2019-05-20T09:10:09.830Z,20.95
2019-05-20T09:15:22.043Z,21.72
2019-05-20T09:20:29.881Z,22.36
2019-05-20T09:23:02.537Z,22.51
2019-05-20T09:25:30.934Z,22.58
2019-05-20T09:28:00.921Z,22.33
2019-05-20T09:30:30.969Z,22.77
2019-05-20T09:32:59.722Z,22.86
2019-05-20T09:35:29.368Z,22.35
2019-05-20T09:40:45.658Z,23.26
2019-05-20T09:43:14.616Z,22.92
2019-05-20T09:45:43.279Z,23.74
2019-05-20T09:48:13.199Z,23.34
2019-05-20T09:50:42.048Z,24.48
2019-05-20T09:55:48.502Z,24.87
2019-05-20T09:58:17.384Z,25.10
2019-05-20T10:00:46.429Z,24.84
2019-05-20T10:03:15.259Z,25.50
2019-05-20T10:05:44.523Z,25.27
2019-05-20T10:08:13.761Z,25.66
2019-05-20T10:13:22.463Z,24.52
2019-05-20T10:15:51.726Z,24.04
2019-05-20T10:21:01.834Z,25.80
2019-05-20T10:23:31.327Z,26.11
2019-05-20T10:26:00.289Z,25.77
2019-05-20T10:31:06.732Z,26.49
2019-05-20T10:33:37.164Z,26.60
2019-05-20T10:36:05.921Z,25.50
2019-05-20T10:41:15.160Z,26.57
2019-05-20T10:43:44.267Z,27.15
2019-05-20T10:46:12.928Z,27.53
2019-05-20T10:48:41.619Z,27.41
2019-05-20T10:53:54.066Z,26.64
2019-05-20T10:56:22.878Z,26.12
2019-05-20T10:58:51.766Z,27.28
2019-05-20T11:01:20.883Z,26.83
2019-05-20T11:06:28.130Z,26.86
2019-05-20T11:09:11.723Z,27.17
2019-05-20T11:11:27.860Z,27.13
2019-05-20T11:16:35.302Z,27.91
2019-05-20T11:19:04.255Z,27.67
2019-05-20T11:21:34.180Z,27.88
2019-05-20T11:24:03.087Z,27.93
2019-05-20T11:29:11.172Z,28.23
2019-05-20T11:31:40.443Z,28.06
2019-05-20T11:34:09.124Z,28.41
2019-05-20T11:36:37.908Z,28.49
2019-05-20T11:41:53.522Z,29.02
2019-05-20T11:44:17.483Z,28.25
2019-05-20T11:46:46.549Z,28.08
2019-05-20T11:49:15.658Z,28.85
2019-05-20T11:51:45.047Z,29.01
2019-05-20T11:54:14.136Z,29.11
2019-05-20T11:56:43.288Z,29.06
2019-05-20T12:01:53.157Z,29.12
2019-05-20T12:04:21.884Z,29.30
2019-05-20T12:06:50.616Z,29.60
2019-05-20T12:09:19.666Z,29.30
2019-05-20T12:14:25.853Z,29.51
2019-05-20T12:16:55.346Z,29.05
2019-05-20T12:19:24.105Z,29.24
2019-05-20T12:24:36.260Z,29.41
2019-05-20T12:27:05.320Z,28.47
2019-05-20T12:32:12.351Z,29.22
2019-05-20T12:34:41.127Z,29.50
2019-05-20T12:37:10.114Z,27.80
2019-05-20T12:39:38.823Z,28.25
2019-05-20T12:42:07.920Z,28.06
2019-05-20T12:44:36.588Z,28.29
2019-05-20T12:49:52.703Z,27.68
2019-05-20T12:52:21.444Z,27.66
2019-05-20T12:55:05.946Z,27.48
2019-05-20T12:57:20.593Z,27.85
2019-05-20T12:59:49.775Z,28.27
2019-05-20T13:02:19.001Z,28.33
2019-05-20T13:04:48.713Z,28.27
2019-05-20T13:07:17.482Z,28.44
2019-05-20T13:09:46.796Z,28.26
2019-05-20T13:12:16.580Z,27.47
2019-05-20T13:14:45.201Z,27.74
2019-05-20T13:17:14.159Z,27.62
2019-05-20T13:19:43.010Z,27.51
2019-05-20T13:22:12.129Z,27.25
2019-05-20T13:24:41.011Z,26.93
2019-05-20T13:27:09.961Z,27.03
2019-05-20T13:29:39.154Z,27.25
2019-05-20T13:32:08.157Z,27.05
2019-05-20T13:37:21.974Z,26.96
2019-05-20T13:42:35.246Z,26.67
2019-05-20T13:47:43.248Z,26.29
2019-05-20T13:50:12.475Z,26.37
2019-05-20T13:55:20.547Z,26.60
2019-05-20T13:57:49.988Z,26.52
2019-05-20T14:00:20.719Z,26.28
2019-05-20T14:05:28.750Z,26.35
2019-05-20T14:10:39.603Z,26.18
2019-05-20T14:13:08.612Z,25.97
2019-05-20T14:15:37.284Z,26.03
2019-05-20T14:18:06.575Z,25.88
2019-05-20T14:20:35.258Z,26.18
2019-05-20T14:23:04.304Z,26.00
2019-05-20T14:28:14.229Z,25.98
2019-05-20T14:33:27.972Z,25.57
2019-05-20T14:35:57.116Z,25.48
2019-05-20T14:38:26.280Z,25.39
2019-05-20T14:43:42.325Z,25.41
2019-05-20T14:46:11.023Z,25.39
2019-05-20T14:48:40.202Z,25.05
2019-05-20T14:51:09.221Z,25.02
2019-05-20T14:53:38.325Z,25.13
2019-05-20T14:56:07.015Z,25.20
2019-05-20T14:58:35.945Z,25.01
2019-05-20T15:01:04.704Z,24.97
2019-05-20T15:03:33.415Z,25.13
2019-05-20T15:06:02.105Z,24.98
2019-05-20T15:08:34.397Z,25.03
2019-05-20T15:11:02.692Z,25.05
2019-05-20T15:16:08.949Z,24.81
2019-05-20T15:21:16.288Z,24.90
2019-05-20T15:26:32.724Z,24.51
2019-05-20T15:29:01.345Z,24.48
2019-05-20T15:31:30.753Z,24.26
2019-05-20T15:33:59.888Z,24.35
2019-05-20T15:36:28.957Z,24.16
2019-05-20T15:38:57.998Z,24.03
2019-05-20T15:41:26.804Z,24.08
2019-05-20T15:46:36.551Z,24.19
2019-05-20T15:49:05.222Z,23.92
2019-05-20T15:51:34.176Z,23.83
2019-05-20T15:56:41.184Z,23.56
2019-05-20T15:59:10.142Z,23.40
2019-05-20T16:04:16.391Z,23.19
2019-05-20T16:06:45.169Z,23.25
2019-05-20T16:11:57.447Z,23.12
2019-05-20T16:14:26.981Z,22.95
2019-05-20T16:16:55.627Z,22.84
2019-05-20T16:19:24.452Z,22.52
2019-05-20T16:21:53.343Z,22.48
2019-05-20T16:24:21.977Z,22.31
2019-05-20T16:26:50.713Z,22.16
2019-05-20T16:29:19.378Z,21.86
2019-05-20T16:31:48.009Z,21.89
2019-05-20T16:36:54.273Z,21.71
2019-05-20T16:39:23.319Z,21.44
2019-05-20T16:41:52.385Z,21.39
2019-05-20T16:44:21.078Z,21.29
2019-05-20T16:49:27.290Z,21.42
2019-05-20T16:51:56.310Z,21.35
2019-05-20T16:57:05.247Z,21.28
2019-05-20T16:59:34.655Z,21.15
2019-05-20T17:02:03.755Z,20.95
2019-05-20T17:07:12.593Z,20.92
2019-05-20T17:09:41.830Z,20.84
2019-05-20T17:12:11.022Z,20.82
2019-05-20T17:14:39.683Z,20.78
2019-05-20T17:17:08.485Z,20.74
2019-05-20T17:19:37.310Z,20.73
2019-05-20T17:22:06.048Z,20.64
2019-05-20T17:24:34.847Z,20.57
2019-05-20T17:27:03.494Z,20.45
2019-05-20T17:29:32.582Z,20.53
2019-05-20T17:32:01.657Z,20.48
2019-05-20T17:34:30.642Z,20.53
2019-05-20T17:36:59.313Z,20.36
2019-05-20T17:39:28.104Z,20.39
2019-05-20T17:41:57.168Z,20.18
2019-05-20T17:47:03.835Z,20.29
2019-05-20T17:49:33.050Z,20.15
2019-05-20T17:54:39.147Z,20.15
2019-05-20T17:57:07.924Z,20.11
2019-05-20T17:59:36.987Z,20.06
2019-05-20T18:02:07.965Z,20.06
2019-05-20T18:07:16.129Z,19.98
2019-05-20T18:09:48.354Z,19.84
2019-05-20T18:12:17.495Z,19.84
2019-05-20T18:14:51.346Z,19.80
2019-05-20T18:17:20.448Z,19.79
2019-05-20T18:19:49.170Z,19.41
2019-05-20T18:22:17.998Z,19.41
2019-05-20T18:27:25.026Z,19.35
2019-05-20T18:29:54.195Z,19.17
2019-05-20T18:32:23.575Z,19.11
2019-05-20T18:34:52.873Z,19.09
2019-05-20T18:37:21.915Z,18.98
2019-05-20T18:39:51.528Z,18.82
2019-05-20T18:42:20.334Z,18.88
2019-05-20T18:44:48.994Z,18.73
2019-05-20T18:47:18.187Z,18.77
2019-05-20T18:52:24.773Z,18.57
2019-05-20T18:54:53.979Z,18.55
2019-05-20T18:57:22.972Z,18.45
2019-05-20T18:59:52.677Z,18.45
2019-05-20T19:02:21.341Z,18.54
2019-05-20T19:04:50.037Z,18.44
2019-05-20T19:07:19.358Z,18.30
2019-05-20T19:12:25.727Z,18.34
2019-05-20T19:17:37.888Z,18.26
2019-05-20T19:22:44.275Z,18.25
2019-05-20T19:27:50.484Z,18.23
2019-05-20T19:33:05.825Z,18.08
2019-05-20T19:35:35.424Z,18.02
2019-05-20T19:38:04.116Z,18.01
2019-05-20T19:40:33.154Z,18.03
2019-05-20T19:43:01.998Z,17.96
2019-05-20T19:45:31.062Z,17.95
2019-05-20T19:50:39.279Z,17.96
2019-05-20T19:53:08.042Z,17.79
2019-05-20T19:55:36.640Z,17.84
2019-05-20T19:58:05.352Z,17.78
2019-05-20T20:00:34.686Z,17.75
2019-05-20T20:03:04.038Z,17.73
2019-05-20T20:08:32.140Z,17.72
2019-05-20T20:11:00.793Z,17.57
2019-05-20T20:13:29.396Z,17.66
2019-05-20T20:18:36.897Z,17.67
2019-05-20T20:21:05.873Z,17.49
2019-05-20T20:26:14.971Z,17.53
2019-05-20T20:28:43.604Z,17.50
2019-05-20T20:31:12.564Z,17.45
2019-05-20T20:33:41.333Z,17.41
2019-05-20T20:36:09.965Z,17.43
2019-05-20T20:38:39.901Z,17.41
2019-05-20T20:41:09.473Z,17.50
2019-05-20T20:43:38.154Z,17.39
2019-05-20T20:46:06.758Z,17.41
2019-05-20T20:48:35.553Z,17.40
2019-05-20T20:51:04.660Z,17.33
2019-05-20T20:53:33.635Z,17.37
2019-05-20T20:56:02.374Z,17.38
2019-05-20T20:58:31.027Z,17.27
2019-05-20T21:00:59.637Z,17.25
2019-05-20T21:03:28.425Z,17.23
2019-05-20T21:05:57.727Z,17.13
2019-05-20T21:08:26.607Z,17.21
2019-05-20T21:10:55.680Z,17.27
2019-05-20T21:16:01.827Z,17.16
2019-05-20T21:18:30.850Z,17.17
2019-05-20T21:20:59.484Z,17.09
2019-05-20T21:26:06.327Z,17.12
2019-05-20T21:28:35.291Z,17.19
2019-05-20T21:31:03.904Z,17.08
2019-05-20T21:36:10.185Z,17.15
2019-05-20T21:38:38.857Z,17.05
2019-05-20T21:43:45.614Z,16.95
2019-05-20T21:46:14.228Z,16.93
2019-05-20T21:48:42.960Z,16.95
2019-05-20T21:51:11.609Z,16.95
2019-05-20T21:53:41.328Z,16.95
2019-05-20T21:58:47.866Z,16.85
2019-05-20T22:01:16.749Z,16.83
2019-05-20T22:03:45.733Z,16.80
2019-05-20T22:08:52.289Z,16.80
2019-05-20T22:11:20.902Z,16.70
2019-05-20T22:13:49.976Z,16.64
2019-05-20T22:18:56.342Z,16.71
2019-05-20T22:21:29.445Z,16.58
2019-05-20T22:24:00.591Z,16.64
2019-05-20T22:26:29.201Z,16.58
2019-05-20T22:28:58.457Z,16.58
2019-05-20T22:31:27.198Z,16.62
2019-05-20T22:33:55.818Z,16.55
2019-05-20T22:39:02.782Z,16.53
2019-05-20T22:41:31.746Z,16.53
2019-05-20T22:44:00.372Z,16.55
2019-05-20T22:46:29.388Z,16.48
2019-05-20T22:48:58.412Z,16.48
2019-05-20T22:51:27.337Z,16.56
2019-05-20T22:53:56.402Z,16.48
2019-05-20T22:56:25.041Z,16.49
2019-05-20T22:58:54.015Z,16.48
2019-05-20T23:01:22.750Z,16.44
2019-05-20T23:06:28.905Z,16.47
2019-05-20T23:08:57.853Z,16.46
2019-05-20T23:11:26.566Z,16.41
2019-05-20T23:13:55.231Z,16.44
2019-05-20T23:16:24.575Z,16.42
2019-05-20T23:21:30.240Z,16.40
2019-05-20T23:26:44.720Z,16.37
2019-05-20T23:29:14.136Z,16.33
2019-05-20T23:31:42.861Z,16.32
2019-05-20T23:36:48.547Z,16.41
2019-05-20T23:39:17.989Z,16.32
2019-05-20T23:44:24.877Z,16.27
2019-05-20T23:46:53.852Z,16.22
2019-05-20T23:49:22.628Z,16.24
2019-05-20T23:51:51.317Z,16.20
2019-05-20T23:56:59.198Z,16.26
